Time;durP1;ratioP1;P1;durP2;ratioP2;P2;SDS_P1;SDS_P2;PMS_P1;PMS_P2;Temp;Humidity;BMP_temperature;BMP_pressure;BME280_temperature;BME280_humidity;BME280_pressure;Samples;Min_cycle;Max_cycle;Signal;HPM_P1;HPM_P2
2024/01/22 00:01:45;;;;;;;7.75;2.20;;;4.70;99.90;;;;;;4855928;29;20037;-71
2024/01/22 00:04:11;;;;;;;8.50;2.85;;;4.80;99.90;;;;;;4858307;29;20065;-71
2024/01/22 00:06:42;;;;;;;5.25;2.17;;;4.70;99.90;;;;;;4855503;29;20525;-71
2024/01/22 00:09:07;;;;;;;11.68;4.25;;;4.70;99.90;;;;;;4853925;29;20029;-71
2024/01/22 00:11:34;;;;;;;6.82;2.28;;;4.60;99.90;;;;;;4855256;29;20029;-71
2024/01/22 00:14:05;;;;;;;3.92;2.33;;;4.60;99.90;;;;;;4857659;29;20391;-71
2024/01/22 00:16:32;;;;;;;13.38;2.30;;;4.60;99.90;;;;;;4854079;29;20060;-71
2024/01/22 00:18:58;;;;;;;8.90;2.42;;;4.60;99.90;;;;;;4856403;29;20034;-71
2024/01/22 00:21:23;;;;;;;7.68;2.50;;;4.70;99.90;;;;;;4855183;29;20037;-71
2024/01/22 00:23:49;;;;;;;6.97;2.20;;;4.80;99.90;;;;;;4868048;29;20045;-71
2024/01/22 00:26:15;;;;;;;3.40;1.75;;;4.80;99.90;;;;;;4853043;29;20482;-71
2024/01/22 00:28:41;;;;;;;3.72;1.83;;;4.90;99.90;;;;;;4854386;29;20538;-71
2024/01/22 00:31:08;;;;;;;4.88;2.28;;;5.00;99.90;;;;;;4855072;29;20407;-71
2024/01/22 00:33:34;;;;;;;2.33;1.48;;;5.20;99.90;;;;;;4856702;29;20029;-71
2024/01/22 00:36:01;;;;;;;8.60;1.73;;;5.40;99.90;;;;;;4853833;29;20029;-71
2024/01/22 00:38:27;;;;;;;3.47;1.80;;;5.40;99.90;;;;;;4851177;29;20053;-71
2024/01/22 00:40:52;;;;;;;3.45;1.73;;;5.50;99.90;;;;;;4852469;29;20542;-71
2024/01/22 00:43:18;;;;;;;11.50;1.92;;;5.50;99.90;;;;;;4872296;29;20454;-71
2024/01/22 00:45:46;;;;;;;2.88;1.88;;;5.60;99.90;;;;;;4855859;29;20489;-71
2024/01/22 00:48:12;;;;;;;5.88;2.88;;;5.60;99.90;;;;;;4856491;29;20041;-71
2024/01/22 00:50:37;;;;;;;2.97;1.80;;;5.60;99.90;;;;;;4851262;29;20513;-71
2024/01/22 00:53:03;;;;;;;3.75;1.88;;;5.60;99.90;;;;;;4851103;29;20034;-71
2024/01/22 00:55:29;;;;;;;4.03;1.42;;;5.50;99.90;;;;;;4852160;29;20037;-71
2024/01/22 00:57:55;;;;;;;6.38;2.35;;;5.50;99.90;;;;;;4854626;29;20106;-71
2024/01/22 01:00:21;;;;;;;10.98;1.88;;;5.40;99.90;;;;;;4854765;29;20048;-71
2024/01/22 01:02:50;;;;;;;10.00;2.33;;;5.30;99.90;;;;;;4855935;29;20505;-71
2024/01/22 01:05:16;;;;;;;4.03;2.17;;;5.20;99.90;;;;;;4854110;29;20045;-70
2024/01/22 01:07:44;;;;;;;6.82;2.00;;;5.10;99.90;;;;;;4851468;29;20033;-70
2024/01/22 01:10:10;;;;;;;2.75;1.80;;;5.00;99.90;;;;;;4852424;29;20068;-70
2024/01/22 01:12:37;;;;;;;6.90;2.03;;;4.80;99.90;;;;;;4850701;29;20527;-70
2024/01/22 01:15:06;;;;;;;6.20;2.10;;;4.70;99.90;;;;;;4851861;29;20520;-70
2024/01/22 01:17:32;;;;;;;3.85;1.88;;;4.80;99.90;;;;;;4855302;29;20071;-70
2024/01/22 01:19:58;;;;;;;2.85;1.50;;;4.90;99.90;;;;;;4852368;29;20057;-70
2024/01/22 01:22:24;;;;;;;3.25;1.60;;;4.90;99.90;;;;;;4852814;29;20045;-71
2024/01/22 01:24:50;;;;;;;3.55;1.65;;;4.90;99.90;;;;;;4867105;29;20116;-71
2024/01/22 01:27:17;;;;;;;2.88;1.13;;;4.80;99.90;;;;;;4852092;29;20067;-71
2024/01/22 01:29:43;;;;;;;4.60;1.73;;;4.90;99.90;;;;;;4854012;29;20025;-70
2024/01/22 01:32:09;;;;;;;5.43;2.08;;;4.90;99.90;;;;;;4856445;29;20113;-70
2024/01/22 01:34:35;;;;;;;8.20;1.85;;;4.90;99.90;;;;;;4850739;29;20108;-70
2024/01/22 01:37:02;;;;;;;5.78;1.08;;;4.90;99.90;;;;;;4853025;29;20112;-70
2024/01/22 01:39:27;;;;;;;1.52;1.08;;;5.00;99.90;;;;;;4856747;29;20089;-70
2024/01/22 01:41:53;;;;;;;8.73;1.45;;;5.10;99.90;;;;;;4855553;29;20045;-70
2024/01/22 01:44:19;;;;;;;8.45;1.92;;;5.10;99.90;;;;;;4853477;29;20041;-70
2024/01/22 01:46:45;;;;;;;3.70;1.50;;;5.10;99.90;;;;;;4854730;29;20475;-70
2024/01/22 01:49:12;;;;;;;3.72;1.70;;;5.10;99.90;;;;;;4868169;29;20034;-70
2024/01/22 01:51:39;;;;;;;3.47;1.73;;;5.10;99.90;;;;;;4853994;29;20402;-70
2024/01/22 01:54:09;;;;;;;3.40;1.33;;;5.00;99.90;;;;;;4840339;29;20037;-70
2024/01/22 01:56:34;;;;;;;3.72;1.88;;;4.90;99.90;;;;;;4864477;29;20025;-70
2024/01/22 01:59:01;;;;;;;1.20;1.05;;;4.80;99.90;;;;;;4852688;29;20102;-70
2024/01/22 02:01:27;;;;;;;4.53;1.23;;;4.70;99.90;;;;;;4851815;29;20041;-70
2024/01/22 02:03:53;;;;;;;4.65;1.65;;;4.60;99.90;;;;;;4851030;29;20556;-70
2024/01/22 02:06:19;;;;;;;2.00;1.15;;;4.60;99.90;;;;;;4869415;29;20037;-70
2024/01/22 02:08:52;;;;;;;6.45;1.88;;;4.60;99.90;;;;;;4855110;29;20045;-71
2024/01/22 02:11:22;;;;;;;3.63;2.33;;;4.60;99.90;;;;;;4869665;29;20030;-70
2024/01/22 02:13:48;;;;;;;6.10;2.10;;;4.60;99.90;;;;;;4861430;29;20041;-70
2024/01/22 02:16:14;;;;;;;11.93;1.90;;;4.60;99.90;;;;;;4858796;29;20033;-70
2024/01/22 02:18:40;;;;;;;4.15;1.65;;;4.70;99.90;;;;;;4858850;29;20432;-70
2024/01/22 02:21:07;;;;;;;3.03;1.40;;;4.80;99.90;;;;;;4859831;29;20086;-70
2024/01/22 02:23:32;;;;;;;7.13;1.20;;;5.00;99.90;;;;;;4854624;29;20038;-70
2024/01/22 02:25:58;;;;;;;6.35;1.13;;;4.90;99.90;;;;;;4875188;29;20049;-70
2024/01/22 02:28:24;;;;;;;2.65;1.58;;;4.90;99.90;;;;;;4858339;29;20037;-71
2024/01/22 02:30:50;;;;;;;6.65;0.98;;;5.00;99.90;;;;;;4870125;29;20455;-71
2024/01/22 02:33:15;;;;;;;3.35;0.98;;;5.00;99.90;;;;;;4860928;29;20116;-71
2024/01/22 02:35:41;;;;;;;2.17;1.05;;;5.00;99.90;;;;;;4860894;29;20078;-71
2024/01/22 02:38:07;;;;;;;5.35;2.28;;;4.90;99.90;;;;;;4858997;29;20075;-71
2024/01/22 02:40:32;;;;;;;14.00;2.97;;;4.80;99.90;;;;;;4858324;29;20439;-71
2024/01/22 02:42:58;;;;;;;2.55;1.75;;;4.80;99.90;;;;;;4856130;29;20055;-71
2024/01/22 02:45:24;;;;;;;1.23;0.85;;;4.70;99.90;;;;;;4859886;29;20112;-71
2024/01/22 02:47:49;;;;;;;2.20;1.65;;;4.70;99.90;;;;;;4859612;29;20618;-71
2024/01/22 02:50:15;;;;;;;1.65;0.98;;;4.70;99.90;;;;;;4860721;29;20068;-71
2024/01/22 02:52:41;;;;;;;1.88;1.27;;;4.70;99.90;;;;;;4857895;29;20128;-71
2024/01/22 02:55:07;;;;;;;3.50;1.58;;;4.70;99.90;;;;;;4860040;29;20029;-71
2024/01/22 02:57:33;;;;;;;15.27;1.75;;;4.70;99.90;;;;;;4859556;29;20089;-71
2024/01/22 02:59:58;;;;;;;3.88;1.77;;;4.70;99.90;;;;;;4860237;29;20124;-71
2024/01/22 03:02:24;;;;;;;4.97;1.80;;;4.70;99.90;;;;;;4857318;29;20061;-70
2024/01/22 03:04:50;;;;;;;4.78;1.45;;;4.60;99.90;;;;;;4874141;29;20033;-70
2024/01/22 03:07:15;;;;;;;2.63;1.60;;;4.60;99.90;;;;;;4858841;29;20034;-71
2024/01/22 03:09:41;;;;;;;2.75;1.17;;;4.70;99.90;;;;;;4859953;29;20038;-70
2024/01/22 03:12:07;;;;;;;1.58;1.00;;;4.60;99.90;;;;;;4857406;29;20119;-70
2024/01/22 03:14:32;;;;;;;3.20;0.90;;;4.50;99.90;;;;;;4857923;29;20068;-70
2024/01/22 03:16:58;;;;;;;1.58;0.90;;;4.50;99.90;;;;;;4857990;29;20859;-71
2024/01/22 03:19:24;;;;;;;1.98;0.93;;;4.60;99.90;;;;;;4859983;29;20045;-71
2024/01/22 03:21:49;;;;;;;2.15;1.48;;;4.60;99.90;;;;;;4860184;29;20475;-71
2024/01/22 03:24:16;;;;;;;2.55;1.30;;;4.60;99.90;;;;;;4856677;29;20104;-71
2024/01/22 03:26:41;;;;;;;8.63;1.55;;;4.80;99.90;;;;;;4858402;29;20521;-71
2024/01/22 03:29:07;;;;;;;4.97;0.80;;;4.70;99.90;;;;;;4859245;29;20033;-71
2024/01/22 03:31:34;;;;;;;2.92;1.15;;;4.70;99.90;;;;;;4856201;29;20177;-71
2024/01/22 03:34:00;;;;;;;2.65;1.50;;;4.70;99.90;;;;;;4859059;29;20509;-71
2024/01/22 03:36:28;;;;;;;0.85;0.55;;;4.70;99.90;;;;;;4859760;29;20053;-71
2024/01/22 03:38:53;;;;;;;2.78;1.10;;;4.90;99.90;;;;;;4858114;29;20037;-71
2024/01/22 03:41:19;;;;;;;9.93;1.38;;;5.00;99.90;;;;;;4859864;29;20097;-71
2024/01/22 03:43:45;;;;;;;1.08;0.73;;;5.10;99.90;;;;;;4859397;29;20043;-71
2024/01/22 03:46:12;;;;;;;1.23;0.70;;;5.00;99.90;;;;;;4858519;29;20190;-71
2024/01/22 03:48:39;;;;;;;2.47;1.42;;;4.80;99.90;;;;;;4858367;29;20033;-71
2024/01/22 03:51:05;;;;;;;0.80;0.35;;;4.60;99.90;;;;;;4869265;29;20121;-71
2024/01/22 03:53:31;;;;;;;1.80;1.05;;;4.50;99.90;;;;;;4857872;29;20033;-71
2024/01/22 03:55:57;;;;;;;1.35;0.98;;;4.50;99.90;;;;;;4857972;29;20032;-71
2024/01/22 03:58:23;;;;;;;10.50;1.42;;;4.40;99.90;;;;;;4860378;29;20144;-71
2024/01/22 04:00:49;;;;;;;2.28;1.10;;;4.40;99.90;;;;;;4858583;29;20044;-71
2024/01/22 04:03:15;;;;;;;1.95;1.00;;;4.40;99.90;;;;;;4873084;29;20037;-71
2024/01/22 04:05:42;;;;;;;8.18;1.55;;;4.40;99.90;;;;;;4859898;29;20036;-71
2024/01/22 04:08:08;;;;;;;3.15;1.20;;;4.50;99.90;;;;;;4859411;29;20501;-71
2024/01/22 04:10:34;;;;;;;1.13;0.75;;;4.60;99.90;;;;;;4869124;29;20025;-71
2024/01/22 04:12:59;;;;;;;13.60;2.05;;;4.80;99.90;;;;;;4854978;29;20022;-71
2024/01/22 04:15:25;;;;;;;1.65;0.80;;;4.80;99.90;;;;;;4860104;29;20025;-71
2024/01/22 04:17:51;;;;;;;0.85;0.77;;;4.80;99.90;;;;;;4857785;29;20436;-71
2024/01/22 04:20:17;;;;;;;1.30;0.90;;;4.70;99.90;;;;;;4856973;29;20033;-71
2024/01/22 04:22:43;;;;;;;3.17;1.27;;;4.70;99.90;;;;;;4857582;29;20404;-71
2024/01/22 04:25:11;;;;;;;7.25;1.30;;;4.70;99.90;;;;;;4858457;29;20063;-71
2024/01/22 04:27:37;;;;;;;6.70;1.40;;;4.80;99.90;;;;;;4855020;29;20067;-71
2024/01/22 04:30:03;;;;;;;2.33;0.70;;;4.80;99.90;;;;;;4856401;29;20486;-71
2024/01/22 04:32:31;;;;;;;4.00;1.80;;;4.90;99.90;;;;;;4859359;29;20177;-71
2024/01/22 04:34:58;;;;;;;2.90;1.33;;;4.80;99.90;;;;;;4850988;29;20089;-71
2024/01/22 04:37:24;;;;;;;2.08;0.80;;;4.70;99.90;;;;;;4858282;29;20041;-71
2024/01/22 04:39:49;;;;;;;1.80;0.65;;;4.80;99.90;;;;;;4858121;29;20033;-71
2024/01/22 04:42:20;;;;;;;1.67;1.10;;;4.80;99.90;;;;;;4858262;29;20074;-71
2024/01/22 04:44:46;;;;;;;0.80;0.57;;;4.80;99.90;;;;;;4859558;29;20026;-71
2024/01/22 04:47:12;;;;;;;5.05;1.60;;;4.70;99.90;;;;;;4858040;29;20061;-71
2024/01/22 04:49:37;;;;;;;2.17;1.08;;;4.70;99.90;;;;;;4873329;29;20049;-71
2024/01/22 04:52:04;;;;;;;6.00;0.65;;;4.70;99.90;;;;;;4859023;29;20033;-71
2024/01/22 04:54:29;;;;;;;3.13;1.48;;;4.70;99.90;;;;;;4873491;29;20029;-71
2024/01/22 04:56:55;;;;;;;1.17;0.75;;;4.70;99.90;;;;;;4857911;29;20493;-71
2024/01/22 04:59:21;;;;;;;1.77;1.00;;;4.70;99.90;;;;;;4858850;29;20029;-71
2024/01/22 05:01:47;;;;;;;1.25;0.80;;;4.70;99.90;;;;;;4859389;29;20364;-71
2024/01/22 05:04:13;;;;;;;2.53;1.38;;;4.70;99.90;;;;;;4871618;29;20046;-71
2024/01/22 05:06:38;;;;;;;16.55;1.13;;;4.60;99.90;;;;;;4855541;29;20036;-71
2024/01/22 05:09:04;;;;;;;1.15;0.63;;;4.70;99.90;;;;;;4858626;29;20487;-70
2024/01/22 05:11:31;;;;;;;1.55;0.82;;;4.70;99.90;;;;;;4852838;29;20032;-71
2024/01/22 05:13:57;;;;;;;0.90;0.60;;;4.70;99.90;;;;;;4850725;29;20032;-71
2024/01/22 05:16:23;;;;;;;2.97;0.60;;;4.60;99.90;;;;;;4855130;29;20030;-71
2024/01/22 05:18:51;;;;;;;1.27;0.68;;;4.60;99.90;;;;;;4854121;29;20173;-70
2024/01/22 05:21:17;;;;;;;0.77;0.63;;;4.70;99.90;;;;;;4852595;29;20033;-70
2024/01/22 05:23:43;;;;;;;0.80;0.75;;;4.70;99.90;;;;;;4856194;29;20040;-70
2024/01/22 05:26:09;;;;;;;3.63;0.80;;;4.70;99.90;;;;;;4852550;29;20037;-70
2024/01/22 05:28:36;;;;;;;2.17;0.73;;;4.70;99.90;;;;;;4852497;29;20040;-70
2024/01/22 05:31:02;;;;;;;2.15;1.25;;;4.70;99.90;;;;;;4855069;29;20112;-71
2024/01/22 05:33:28;;;;;;;2.03;0.50;;;4.70;99.90;;;;;;4851040;29;20049;-71
2024/01/22 05:35:55;;;;;;;2.85;1.23;;;4.70;99.90;;;;;;4849983;29;20491;-71
2024/01/22 05:38:22;;;;;;;1.50;0.95;;;4.70;99.90;;;;;;4856327;29;20041;-71
2024/01/22 05:40:48;;;;;;;2.42;1.00;;;4.70;99.90;;;;;;4871301;29;20025;-71
2024/01/22 05:43:14;;;;;;;4.03;1.20;;;4.70;99.90;;;;;;4854239;29;20041;-71
2024/01/22 05:45:40;;;;;;;1.67;1.00;;;4.80;99.90;;;;;;4852252;29;20426;-71
2024/01/22 05:48:07;;;;;;;1.95;0.95;;;4.70;99.90;;;;;;4859962;29;20029;-71
2024/01/22 05:50:33;;;;;;;3.60;0.52;;;4.80;99.90;;;;;;4855412;29;20394;-72
2024/01/22 05:52:59;;;;;;;3.17;0.95;;;4.80;99.90;;;;;;4860275;29;20033;-70
2024/01/22 05:55:28;;;;;;;1.67;1.02;;;4.60;99.90;;;;;;4859290;29;20542;-70
2024/01/22 05:57:54;;;;;;;1.00;0.70;;;4.60;99.90;;;;;;4861595;29;20049;-70
2024/01/22 06:00:21;;;;;;;1.45;0.95;;;4.60;99.90;;;;;;4861012;29;20026;-71
2024/01/22 06:02:47;;;;;;;3.17;1.10;;;4.60;99.90;;;;;;4834824;29;20049;-71
2024/01/22 06:05:13;;;;;;;1.83;0.75;;;4.60;99.90;;;;;;4876427;29;20045;-72
2024/01/22 06:07:40;;;;;;;3.05;1.08;;;4.60;99.90;;;;;;4853999;29;20049;-71
2024/01/22 06:10:06;;;;;;;7.43;1.33;;;4.60;99.90;;;;;;4860391;29;20061;-71
2024/01/22 06:12:34;;;;;;;5.07;1.30;;;4.60;99.90;;;;;;4856716;29;20034;-71
2024/01/22 06:15:01;;;;;;;16.77;1.08;;;4.60;99.90;;;;;;4859968;29;20116;-71
2024/01/22 06:17:31;;;;;;;3.83;0.77;;;4.60;99.90;;;;;;4862806;29;20041;-71
2024/01/22 06:20:01;;;;;;;0.95;0.63;;;4.60;99.90;;;;;;4875332;29;20558;-70
2024/01/22 06:22:29;;;;;;;2.60;0.98;;;4.60;99.90;;;;;;4860829;29;20101;-71
2024/01/22 06:24:55;;;;;;;2.65;0.95;;;4.60;99.90;;;;;;4864738;29;20065;-71
2024/01/22 06:27:22;;;;;;;1.88;0.90;;;4.50;99.90;;;;;;4863061;29;20083;-71
2024/01/22 06:29:48;;;;;;;1.17;0.50;;;4.50;99.90;;;;;;4863457;29;20483;-71
2024/01/22 06:32:13;;;;;;;2.20;1.35;;;4.60;99.90;;;;;;4846185;29;20045;-71
2024/01/22 06:34:40;;;;;;;2.28;1.10;;;4.50;99.90;;;;;;4878444;29;20029;-71
2024/01/22 06:37:05;;;;;;;5.75;0.70;;;4.60;99.90;;;;;;4856043;29;20034;-71
2024/01/22 06:39:32;;;;;;;1.10;0.65;;;4.60;99.90;;;;;;4875071;29;20029;-71
2024/01/22 06:41:57;;;;;;;1.42;0.98;;;4.70;99.90;;;;;;4863377;29;20115;-71
2024/01/22 06:44:23;;;;;;;1.23;0.70;;;4.80;99.90;;;;;;4855842;29;20121;-71
2024/01/22 06:46:49;;;;;;;0.38;0.30;;;4.90;99.90;;;;;;4875176;29;20048;-71
2024/01/22 06:49:14;;;;;;;1.02;0.65;;;5.00;99.90;;;;;;4840875;29;20065;-71
2024/01/22 06:51:40;;;;;;;9.98;1.40;;;5.10;99.90;;;;;;4864299;29;20083;-71
2024/01/22 06:54:06;;;;;;;0.98;0.65;;;5.20;99.90;;;;;;4856608;29;20395;-71
2024/01/22 06:56:32;;;;;;;1.08;0.63;;;5.20;99.90;;;;;;4864825;29;20120;-71
2024/01/22 06:58:58;;;;;;;1.77;0.80;;;5.10;99.90;;;;;;4854251;29;20109;-71
2024/01/22 07:01:27;;;;;;;2.35;1.23;;;5.10;99.90;;;;;;4860262;29;20037;-71
2024/01/22 07:03:54;;;;;;;0.75;0.38;;;5.20;99.90;;;;;;4860638;29;20041;-71
2024/01/22 07:06:20;;;;;;;1.40;0.80;;;5.10;99.90;;;;;;4875863;29;20077;-70
2024/01/22 07:08:46;;;;;;;0.40;0.40;;;5.20;99.90;;;;;;4853277;29;20046;-70
2024/01/22 07:11:12;;;;;;;1.63;0.90;;;5.10;99.90;;;;;;4861240;29;20423;-71
2024/01/22 07:13:38;;;;;;;2.15;0.98;;;5.20;99.90;;;;;;4852081;29;20371;-71
2024/01/22 07:16:07;;;;;;;1.98;0.52;;;5.20;99.90;;;;;;4861536;29;20037;-71
2024/01/22 07:18:34;;;;;;;1.35;0.80;;;5.20;99.90;;;;;;4853159;29;20120;-71
2024/01/22 07:21:00;;;;;;;0.70;0.65;;;5.20;99.90;;;;;;4875767;29;20387;-71
2024/01/22 07:23:27;;;;;;;1.55;1.00;;;5.20;99.90;;;;;;4852760;29;20124;-71
2024/01/22 07:25:54;;;;;;;1.40;0.60;;;5.20;99.90;;;;;;4844857;29;20041;-71
2024/01/22 07:28:20;;;;;;;0.55;0.55;;;5.30;99.90;;;;;;4853584;29;20034;-71
2024/01/22 07:30:46;;;;;;;1.52;0.88;;;5.30;99.90;;;;;;4861291;29;20036;-71
2024/01/22 07:33:11;;;;;;;1.35;0.80;;;5.30;99.90;;;;;;4852738;29;20037;-71
2024/01/22 07:35:37;;;;;;;3.05;0.77;;;5.30;99.90;;;;;;4860015;29;20029;-71
2024/01/22 07:38:05;;;;;;;1.02;0.55;;;5.30;99.90;;;;;;4868484;29;20128;-70
2024/01/22 07:40:31;;;;;;;1.45;0.63;;;5.30;99.90;;;;;;4857365;29;20057;-71
2024/01/22 07:42:57;;;;;;;1.60;1.50;;;5.40;99.90;;;;;;4871662;29;20120;-72
2024/01/22 07:45:22;;;;;;;3.33;0.63;;;5.40;99.90;;;;;;4860024;29;20037;-72
2024/01/22 07:47:49;;;;;;;0.95;0.70;;;5.50;99.90;;;;;;4838990;29;20045;-72
2024/01/22 07:50:14;;;;;;;1.98;0.80;;;5.40;99.90;;;;;;4874845;29;20038;-72
2024/01/22 07:52:42;;;;;;;2.92;1.20;;;5.40;99.90;;;;;;4870186;29;20022;-70
2024/01/22 07:55:08;;;;;;;2.15;0.70;;;5.40;99.90;;;;;;4873187;29;20029;-72
2024/01/22 07:57:34;;;;;;;1.23;0.73;;;5.40;99.90;;;;;;4857218;29;20495;-72
2024/01/22 08:00:01;;;;;;;1.38;0.73;;;5.50;99.90;;;;;;4839545;29;20033;-72
2024/01/22 08:02:27;;;;;;;2.47;1.15;;;5.70;99.90;;;;;;4858466;29;20115;-72
2024/01/22 08:04:52;;;;;;;1.80;0.80;;;5.80;99.90;;;;;;4874654;29;20443;-72
2024/01/22 08:07:19;;;;;;;1.10;0.73;;;6.00;99.90;;;;;;4858422;29;20029;-73
2024/01/22 08:09:45;;;;;;;1.63;0.70;;;6.20;99.90;;;;;;4854767;29;20037;-72
2024/01/22 08:12:11;;;;;;;2.88;0.60;;;6.40;99.90;;;;;;4867205;29;20121;-73
2024/01/22 08:14:37;;;;;;;1.58;0.77;;;6.70;99.90;;;;;;4874585;29;20100;-73
2024/01/22 08:17:03;;;;;;;0.73;0.60;;;6.90;99.90;;;;;;4859338;29;20028;-73
2024/01/22 08:19:30;;;;;;;0.70;0.25;;;7.00;99.90;;;;;;4874034;29;20076;-74
2024/01/22 08:21:56;;;;;;;3.58;0.57;;;7.10;99.90;;;;;;4843830;29;20057;-73
2024/01/22 08:24:23;;;;;;;0.82;0.57;;;7.20;99.90;;;;;;4859517;29;20118;-73
2024/01/22 08:26:49;;;;;;;6.60;0.52;;;7.20;99.90;;;;;;4857772;29;20119;-73
2024/01/22 08:29:15;;;;;;;1.50;0.55;;;7.20;99.90;;;;;;4853527;29;20114;-72
2024/01/22 08:31:42;;;;;;;1.27;0.77;;;7.20;99.90;;;;;;4858487;29;20483;-73
2024/01/22 08:34:08;;;;;;;2.67;0.77;;;7.20;99.90;;;;;;4859361;29;20036;-73
2024/01/22 08:36:34;;;;;;;0.75;0.75;;;7.30;99.90;;;;;;4858722;29;20123;-73
2024/01/22 08:38:59;;;;;;;1.40;0.28;;;7.20;99.90;;;;;;4851709;29;20483;-74
2024/01/22 08:41:28;;;;;;;0.10;0.10;;;7.20;99.90;;;;;;4858880;29;20033;-73
2024/01/22 08:43:55;;;;;;;0.28;0.20;;;7.00;99.90;;;;;;4859391;29;20038;-73
2024/01/22 08:46:21;;;;;;;1.08;0.50;;;6.70;99.90;;;;;;4856495;29;20104;-73
2024/01/22 08:48:48;;;;;;;1.05;0.98;;;6.60;99.90;;;;;;4858451;29;20049;-72
2024/01/22 08:51:14;;;;;;;1.58;0.75;;;6.50;99.90;;;;;;4851400;29;20166;-72
2024/01/22 08:53:40;;;;;;;2.45;1.30;;;6.50;99.90;;;;;;4850636;29;20463;-73
2024/01/22 08:56:05;;;;;;;4.72;0.63;;;6.50;99.90;;;;;;4859252;29;20090;-73
2024/01/22 08:58:31;;;;;;;3.63;1.05;;;6.50;99.90;;;;;;4873250;29;20033;-73
2024/01/22 09:00:57;;;;;;;2.13;1.05;;;6.60;99.90;;;;;;4853144;29;20472;-72
2024/01/22 09:03:25;;;;;;;1.58;0.80;;;6.60;99.90;;;;;;4838551;29;20364;-72
2024/01/22 09:05:52;;;;;;;2.92;0.77;;;6.60;99.90;;;;;;4858192;29;20026;-72
2024/01/22 09:08:17;;;;;;;1.55;0.85;;;6.60;99.90;;;;;;4851390;29;20041;-73
2024/01/22 09:10:43;;;;;;;1.25;0.43;;;6.60;99.90;;;;;;4873671;29;20420;-73
2024/01/22 09:13:09;;;;;;;1.42;0.52;;;6.60;99.90;;;;;;4855261;29;20403;-73
2024/01/22 09:15:35;;;;;;;0.70;0.57;;;6.60;99.90;;;;;;4854906;29;20029;-73
2024/01/22 09:18:01;;;;;;;1.52;0.52;;;6.60;99.90;;;;;;4850952;29;20029;-73
2024/01/22 09:20:27;;;;;;;0.70;0.50;;;6.60;99.90;;;;;;4850242;29;20379;-73
2024/01/22 09:22:53;;;;;;;2.03;0.50;;;6.70;99.90;;;;;;4855725;29;20451;-73
2024/01/22 09:25:20;;;;;;;0.95;0.55;;;6.70;99.90;;;;;;4852293;29;20045;-72
2024/01/22 09:27:49;;;;;;;0.43;0.43;;;6.70;99.90;;;;;;4854649;29;20406;-71
2024/01/22 09:30:15;;;;;;;0.25;0.25;;;6.80;99.90;;;;;;4851068;29;20037;-72
2024/01/22 09:32:41;;;;;;;7.18;1.33;;;6.70;99.90;;;;;;4847907;29;20030;-72
2024/01/22 09:35:07;;;;;;;0.40;0.40;;;6.70;99.90;;;;;;4857371;29;20036;-72
2024/01/22 09:37:34;;;;;;;0.73;0.40;;;6.70;99.90;;;;;;4853568;29;20041;-72
2024/01/22 09:40:00;;;;;;;3.65;0.80;;;6.80;99.90;;;;;;4869486;29;20021;-72
2024/01/22 09:42:28;;;;;;;1.98;1.10;;;6.80;99.90;;;;;;4857210;29;20029;-71
2024/01/22 09:44:54;;;;;;;0.57;0.47;;;6.80;99.90;;;;;;4857404;29;20049;-71
2024/01/22 09:47:20;;;;;;;4.90;1.10;;;6.70;99.90;;;;;;4856318;29;20514;-71
2024/01/22 09:49:47;;;;;;;4.38;1.55;;;6.70;99.90;;;;;;4856351;29;20045;-72
2024/01/22 09:52:16;;;;;;;0.93;0.50;;;6.70;99.90;;;;;;4856102;29;20033;-71
2024/01/22 09:54:44;;;;;;;1.75;0.80;;;6.70;99.90;;;;;;4855974;29;20459;-72
2024/01/22 09:57:17;;;;;;;1.33;0.73;;;6.80;99.90;;;;;;4856073;29;20029;-72
2024/01/22 09:59:44;;;;;;;4.18;0.82;;;6.80;99.90;;;;;;4872566;29;20037;-71
2024/01/22 10:02:15;;;;;;;3.40;0.55;;;6.80;99.90;;;;;;4871159;29;20029;-71
2024/01/22 10:04:44;;;;;;;1.75;0.82;;;6.80;99.90;;;;;;4857288;29;20033;-71
2024/01/22 10:07:14;;;;;;;1.45;0.65;;;6.90;99.90;;;;;;4856296;29;20043;-72
2024/01/22 10:09:41;;;;;;;0.65;0.65;;;6.90;99.90;;;;;;4857516;29;20029;-71
2024/01/22 10:12:07;;;;;;;0.90;0.60;;;6.90;99.90;;;;;;4855920;29;20053;-71
2024/01/22 10:14:35;;;;;;;1.70;0.60;;;6.90;99.90;;;;;;4857251;29;20022;-71
2024/01/22 10:17:18;;;;;;;1.50;0.73;;;6.80;99.90;;;;;;4855777;29;20021;-72
2024/01/22 10:19:49;;;;;;;1.05;0.55;;;6.90;99.90;;;;;;4857815;29;20036;-71
2024/01/22 10:22:24;;;;;;;1.38;0.57;;;6.90;99.90;;;;;;4855201;29;20688;-72
2024/01/22 10:25:00;;;;;;;2.03;0.80;;;7.00;99.90;;;;;;4856468;29;20125;-71
2024/01/22 10:27:26;;;;;;;1.27;0.63;;;7.10;99.90;;;;;;4871251;29;20037;-72
2024/01/22 10:30:06;;;;;;;3.95;1.27;;;7.10;99.90;;;;;;4856807;29;20117;-72
2024/01/22 10:32:32;;;;;;;2.40;1.23;;;7.10;99.90;;;;;;4856878;29;20034;-71
2024/01/22 10:34:58;;;;;;;1.70;1.30;;;7.10;99.90;;;;;;4875572;29;20032;-71
2024/01/22 10:37:24;;;;;;;1.45;0.95;;;7.10;99.90;;;;;;4859357;29;20040;-71
2024/01/22 10:40:01;;;;;;;1.40;0.65;;;7.20;99.90;;;;;;4861201;29;20479;-71
2024/01/22 10:42:27;;;;;;;0.75;0.70;;;7.20;99.90;;;;;;4874653;29;20048;-71
2024/01/22 10:44:53;;;;;;;12.80;1.20;;;7.30;99.90;;;;;;4856773;29;20038;-71
2024/01/22 10:47:19;;;;;;;1.50;0.70;;;7.30;99.90;;;;;;4860419;29;20041;-72
2024/01/22 10:49:46;;;;;;;3.30;0.68;;;7.20;99.90;;;;;;4859313;29;20033;-72
2024/01/22 10:52:13;;;;;;;0.85;0.70;;;7.30;99.90;;;;;;4858971;29;20451;-71
2024/01/22 10:54:39;;;;;;;2.83;0.77;;;7.30;99.90;;;;;;4871982;29;20081;-71
2024/01/22 10:57:34;;;;;;;2.53;1.42;;;7.40;99.90;;;;;;4859320;29;20018;-71
2024/01/22 11:00:06;;;;;;;1.38;0.68;;;7.40;99.90;;;;;;4874254;29;20041;-72
2024/01/22 11:02:35;;;;;;;2.08;1.42;;;7.40;99.90;;;;;;4858918;29;20503;-71
2024/01/22 11:05:13;;;;;;;1.15;0.77;;;7.50;99.90;;;;;;4859093;29;20040;-71
2024/01/22 11:07:40;;;;;;;2.15;0.70;;;7.60;99.90;;;;;;4858870;29;20041;-71
2024/01/22 11:10:10;;;;;;;1.10;0.75;;;7.60;99.90;;;;;;4859284;29;20032;-71
2024/01/22 11:12:48;;;;;;;5.80;0.93;;;7.60;99.90;;;;;;4860032;29;20183;-73
2024/01/22 11:15:14;;;;;;;2.65;1.42;;;7.70;99.90;;;;;;4873907;29;20030;-73
2024/01/22 11:17:40;;;;;;;1.00;0.50;;;7.80;99.90;;;;;;4855637;29;20442;-74
2024/01/22 11:20:18;;;;;;;6.38;1.52;;;7.90;99.90;;;;;;4841591;29;20030;-75
2024/01/22 11:23:08;;;;;;;8.38;1.83;;;7.90;99.90;;;;;;4840428;29;20060;-75
2024/01/22 11:25:34;;;;;;;4.45;1.48;;;7.90;99.90;;;;;;4859597;29;20041;-74
2024/01/22 11:28:09;;;;;;;12.02;1.98;;;7.80;99.90;;;;;;4852343;29;20407;-74
2024/01/22 11:30:39;;;;;;;1.50;0.90;;;7.90;99.90;;;;;;4858970;29;20491;-74
2024/01/22 11:33:23;;;;;;;2.28;0.90;;;7.90;99.90;;;;;;4851699;29;20563;-74
2024/01/22 11:35:49;;;;;;;2.17;0.90;;;7.90;99.90;;;;;;4858918;29;20681;-74
2024/01/22 11:38:52;;;;;;;3.15;1.77;;;7.90;99.90;;;;;;4854452;29;20030;-75
2024/01/22 11:41:32;;;;;;;1.38;0.68;;;7.90;99.90;;;;;;4857774;29;20661;-74
2024/01/22 11:43:59;;;;;;;1.25;1.00;;;7.90;99.90;;;;;;4857502;29;20390;-76
2024/01/22 11:46:26;;;;;;;2.42;1.00;;;7.90;99.90;;;;;;4859272;29;20029;-74
2024/01/22 11:48:56;;;;;;;1.67;1.23;;;8.00;99.90;;;;;;4844439;29;20038;-73
2024/01/22 11:51:26;;;;;;;1.58;0.85;;;8.00;99.90;;;;;;4855715;29;20040;-78
2024/01/22 11:53:58;;;;;;;0.93;0.80;;;8.00;99.90;;;;;;4857911;29;20031;-74
2024/01/22 11:56:24;;;;;;;2.03;1.02;;;8.00;99.90;;;;;;4856251;29;20038;-75
2024/01/22 11:59:08;;;;;;;2.47;1.25;;;8.00;99.90;;;;;;4859644;29;20029;-75
2024/01/22 12:01:33;;;;;;;2.45;0.93;;;8.10;99.90;;;;;;4854093;29;20025;-74
2024/01/22 12:04:21;;;;;;;3.35;1.70;;;8.10;99.90;;;;;;4858646;29;20036;-75
2024/01/22 12:06:50;;;;;;;2.85;1.00;;;8.10;99.90;;;;;;4874296;29;20064;-74
2024/01/22 12:09:16;;;;;;;8.80;1.83;;;8.10;99.90;;;;;;4872441;29;20491;-73
2024/01/22 12:11:52;;;;;;;5.22;1.65;;;8.20;99.90;;;;;;4858187;29;20059;-75
2024/01/22 12:14:17;;;;;;;4.78;1.90;;;8.20;99.90;;;;;;4851151;29;20025;-74
2024/01/22 12:16:43;;;;;;;0.82;0.52;;;8.30;99.90;;;;;;4869085;29;20028;-75
2024/01/22 12:19:12;;;;;;;1.77;0.65;;;8.30;99.90;;;;;;4858331;29;20049;-75
2024/01/22 12:21:39;;;;;;;5.18;1.38;;;8.30;99.90;;;;;;4855866;29;20046;-75
2024/01/22 12:24:14;;;;;;;4.70;1.15;;;8.30;99.90;;;;;;4857512;29;20072;-74
2024/01/22 12:26:40;;;;;;;6.03;0.90;;;8.40;99.90;;;;;;4858197;29;20033;-74
2024/01/22 12:29:16;;;;;;;1.30;0.98;;;8.40;99.90;;;;;;4856590;29;20038;-75
2024/01/22 12:31:42;;;;;;;1.05;0.70;;;8.40;99.90;;;;;;4851734;29;20047;-75
2024/01/22 12:34:11;;;;;;;1.67;0.73;;;8.40;99.90;;;;;;4841693;29;20131;-74
2024/01/22 12:36:37;;;;;;;1.25;0.90;;;8.50;99.90;;;;;;4843125;29;20505;-75
2024/01/22 12:39:05;;;;;;;2.92;1.17;;;8.50;99.90;;;;;;4853241;29;20041;-74
2024/01/22 12:41:32;;;;;;;5.70;1.75;;;8.60;99.90;;;;;;4857843;29;20394;-75
2024/01/22 12:43:58;;;;;;;1.10;0.90;;;8.60;99.90;;;;;;4851339;29;20108;-75
2024/01/22 12:46:25;;;;;;;1.63;0.80;;;8.60;99.90;;;;;;4857832;29;20068;-74
2024/01/22 12:48:55;;;;;;;3.20;0.98;;;8.70;99.90;;;;;;4851920;29;20038;-75
2024/01/22 12:51:25;;;;;;;2.35;0.77;;;8.70;99.90;;;;;;4857969;29;20033;-75
2024/01/22 12:53:51;;;;;;;1.48;0.75;;;8.80;99.90;;;;;;4850823;29;20046;-75
2024/01/22 12:56:17;;;;;;;1.52;1.35;;;8.90;99.90;;;;;;4848660;29;20049;-75
2024/01/22 12:58:43;;;;;;;1.45;0.98;;;8.90;99.90;;;;;;4859922;29;20061;-75